Time;durP1;ratioP1;P1;durP2;ratioP2;P2;SDS_P1;SDS_P2;PMS_P1;PMS_P2;Temp;Humidity;BMP_temperature;BMP_pressure;BME280_temperature;BME280_humidity;BME280_pressure;Samples;Min_cycle;Max_cycle;Signal;HPM_P1;HPM_P2
2023/09/01 00:00:41;;;;;;;4.53;4.13;;;;;;;13.48;100.00;96884.97;5014575;28;20648;-58
2023/09/01 00:03:09;;;;;;;4.53;4.23;;;;;;;13.47;100.00;96886.84;5012209;28;20208;-60
2023/09/01 00:05:38;;;;;;;4.73;4.37;;;;;;;13.45;100.00;96884.38;5008685;28;20204;-59
2023/09/01 00:08:06;;;;;;;5.00;4.60;;;;;;;13.40;100.00;96878.00;4958628;28;21308;-60
2023/09/01 00:10:39;;;;;;;4.60;4.10;;;;;;;13.40;100.00;96881.50;5013724;28;20277;-57
2023/09/01 00:13:07;;;;;;;5.53;4.37;;;;;;;13.42;100.00;96873.28;5006767;28;20321;-61
2023/09/01 00:15:35;;;;;;;7.07;4.20;;;;;;;13.41;100.00;96874.31;5016676;28;20200;-59
2023/09/01 00:18:04;;;;;;;6.27;4.80;;;;;;;13.40;100.00;96885.97;4883607;28;20712;-61
2023/09/01 00:20:34;;;;;;;6.93;4.60;;;;;;;13.42;100.00;96887.44;5015376;28;20216;-59
2023/09/01 00:23:02;;;;;;;3.93;3.67;;;;;;;13.41;100.00;96887.63;4958085;28;20208;-59
2023/09/01 00:25:31;;;;;;;4.97;4.57;;;;;;;13.38;100.00;96883.53;5018163;28;20725;-60
2023/09/01 00:28:00;;;;;;;5.33;4.83;;;;;;;13.37;100.00;96889.91;5011292;28;20238;-58
2023/09/01 00:30:28;;;;;;;4.63;3.90;;;;;;;13.34;100.00;96889.47;5013487;28;20714;-58
2023/09/01 00:32:56;;;;;;;4.67;4.37;;;;;;;13.32;100.00;96887.84;5008056;28;20204;-55
2023/09/01 00:35:24;;;;;;;6.60;4.23;;;;;;;13.28;100.00;96899.13;5011228;28;20224;-58
2023/09/01 00:37:51;;;;;;;4.50;4.00;;;;;;;13.27;100.00;96898.31;5013171;28;20263;-58
2023/09/01 00:40:19;;;;;;;5.03;4.17;;;;;;;13.27;100.00;96898.31;5014122;28;20276;-55
2023/09/01 00:42:48;;;;;;;3.80;3.50;;;;;;;13.29;100.00;96900.78;4958548;28;20281;-56
2023/09/01 00:45:17;;;;;;;5.03;4.47;;;;;;;13.23;100.00;96899.75;5016135;28;20200;-58
2023/09/01 00:47:45;;;;;;;4.23;3.83;;;;;;;13.10;100.00;96895.25;5011792;28;20586;-55
2023/09/01 00:50:13;;;;;;;4.47;4.13;;;;;;;13.15;100.00;96902.63;5014062;28;20205;-58
2023/09/01 00:52:41;;;;;;;4.67;4.10;;;;;;;13.12;100.00;96900.38;4888371;28;20258;-58
2023/09/01 00:55:09;;;;;;;4.53;4.23;;;;;;;13.10;100.00;96899.78;5013818;28;20716;-58
2023/09/01 00:57:36;;;;;;;5.17;4.77;;;;;;;13.02;100.00;96898.94;4948855;28;20217;-55
2023/09/01 01:00:06;;;;;;;5.83;4.00;;;;;;;13.00;100.00;96903.66;5016162;28;20227;-58
2023/09/01 01:02:35;;;;;;;4.63;4.20;;;;;;;13.02;100.00;96898.94;5017252;28;20299;-56
2023/09/01 01:05:13;;;;;;;6.00;4.17;;;;;;;12.98;100.00;96892.41;4948560;28;20606;-56
2023/09/01 01:07:47;;;;;;;4.87;4.47;;;;;;;12.85;100.00;96903.88;5018822;28;20204;-59
2023/09/01 01:10:19;;;;;;;4.50;4.10;;;;;;;12.93;100.00;96899.38;5007516;28;20279;-57
2023/09/01 01:12:50;;;;;;;4.87;4.47;;;;;;;12.93;100.00;96896.72;5016376;28;20232;-56
2023/09/01 01:15:19;;;;;;;4.17;3.87;;;;;;;12.93;100.00;96891.41;4961173;28;20402;-61
2023/09/01 01:17:49;;;;;;;4.53;4.17;;;;;;;12.95;100.00;96884.03;5014451;28;20236;-58
2023/09/01 01:20:29;;;;;;;4.40;4.00;;;;;;;12.91;100.00;96894.25;5014285;28;20472;-56
2023/09/01 01:23:07;;;;;;;4.50;4.20;;;;;;;12.95;100.00;96887.50;5014038;28;20303;-57
2023/09/01 01:25:37;;;;;;;5.13;4.00;;;;;;;12.89;100.00;96883.03;4933282;28;20217;-57
2023/09/01 01:28:09;;;;;;;4.43;4.03;;;;;;;12.93;100.00;96880.78;5017897;28;20702;-56
2023/09/01 01:30:37;;;;;;;4.70;4.33;;;;;;;12.91;100.00;96880.97;5015131;28;20188;-59
2023/09/01 01:33:05;;;;;;;4.40;4.10;;;;;;;12.93;100.00;96891.41;5016749;28;20280;-58
2023/09/01 01:35:38;;;;;;;4.43;4.17;;;;;;;12.95;100.00;96890.16;5015065;28;20208;-61
2023/09/01 01:38:14;;;;;;;4.33;3.90;;;;;;;12.94;100.00;96887.72;5018118;28;20247;-59
2023/09/01 01:40:44;;;;;;;4.73;4.27;;;;;;;12.99;100.00;96882.59;5011969;28;20196;-58
2023/09/01 01:43:12;;;;;;;4.93;4.20;;;;;;;12.92;100.00;96889.78;5016410;28;20199;-60
2023/09/01 01:45:42;;;;;;;5.03;4.30;;;;;;;12.92;100.00;96889.78;5013057;28;20243;-62
2023/09/01 01:48:10;;;;;;;5.00;4.50;;;;;;;12.86;100.00;96889.56;5014920;28;20338;-56
2023/09/01 01:50:38;;;;;;;5.53;4.07;;;;;;;12.72;100.00;96894.09;4961808;28;20270;-59
2023/09/01 01:53:07;;;;;;;4.57;4.27;;;;;;;12.64;100.00;96894.25;5014676;28;20224;-59
2023/09/01 01:55:36;;;;;;;5.27;4.50;;;;;;;12.60;100.00;96893.03;4931780;28;20782;-59
2023/09/01 01:58:05;;;;;;;4.80;4.40;;;;;;;12.63;100.00;96899.81;5017072;28;20222;-57
2023/09/01 02:00:33;;;;;;;8.13;4.40;;;;;;;12.62;100.00;96896.31;5014680;28;20299;-56
2023/09/01 02:03:01;;;;;;;6.20;4.97;;;;;;;12.54;100.00;96896.53;5018536;28;20208;-57
2023/09/01 02:05:28;;;;;;;5.07;4.67;;;;;;;12.51;100.00;96904.91;5004661;28;20274;-59
2023/09/01 02:07:56;;;;;;;5.90;4.83;;;;;;;12.55;100.00;96903.47;5016335;28;21353;-59
2023/09/01 02:10:24;;;;;;;5.17;4.70;;;;;;;12.45;100.00;96895.88;5014004;28;20230;-59
2023/09/01 02:12:53;;;;;;;5.03;4.57;;;;;;;12.43;100.00;96893.44;5019909;28;20337;-58
2023/09/01 02:15:20;;;;;;;5.43;5.03;;;;;;;12.49;100.00;96898.97;5010728;28;20224;-59
2023/09/01 02:17:48;;;;;;;6.00;4.80;;;;;;;12.46;100.00;96892.22;5018362;28;20224;-57
2023/09/01 02:20:17;;;;;;;5.40;4.90;;;;;;;12.36;100.00;96887.31;4960595;28;20879;-59
2023/09/01 02:22:45;;;;;;;5.93;4.43;;;;;;;12.45;100.00;96885.25;5016119;28;20288;-52
2023/09/01 02:25:13;;;;;;;4.97;4.57;;;;;;;12.49;100.00;96891.81;5012791;28;20278;-58
2023/09/01 02:27:42;;;;;;;6.10;5.10;;;;;;;12.49;100.00;96886.50;5015720;28;20339;-59
2023/09/01 02:30:13;;;;;;;5.90;5.20;;;;;;;12.42;100.00;96890.97;4945477;28;21705;-57
2023/09/01 02:32:41;;;;;;;9.03;5.50;;;;;;;12.40;100.00;96883.22;5014671;28;20255;-59
2023/09/01 02:35:09;;;;;;;5.87;5.37;;;;;;;12.42;100.00;96883.84;5011944;28;20200;-57
2023/09/01 02:37:37;;;;;;;6.07;5.23;;;;;;;12.41;100.00;96876.91;5017029;28;20196;-57
2023/09/01 02:40:10;;;;;;;5.40;4.90;;;;;;;12.35;100.00;96877.72;5010546;28;20192;-59
2023/09/01 02:42:39;;;;;;;6.00;4.80;;;;;;;12.48;100.00;96887.50;5016737;28;20228;-57
2023/09/01 02:45:09;;;;;;;10.23;6.07;;;;;;;12.45;100.00;96891.41;5011347;28;20282;-59
2023/09/01 02:47:37;;;;;;;7.13;4.80;;;;;;;12.35;100.00;96890.16;5015569;28;20299;-60
2023/09/01 02:50:06;;;;;;;5.07;4.30;;;;;;;12.35;100.00;96888.34;5014587;28;20626;-59
2023/09/01 02:52:34;;;;;;;6.40;5.30;;;;;;;12.41;100.00;96884.03;5014350;28;20255;-57
2023/09/01 02:55:03;;;;;;;6.60;5.90;;;;;;;12.42;100.00;96883.84;4974134;28;20684;-58
2023/09/01 02:57:30;;;;;;;6.10;5.37;;;;;;;12.37;100.00;96875.66;5007280;28;20209;-58
2023/09/01 02:59:59;;;;;;;7.03;6.40;;;;;;;12.30;100.00;96873.00;4958852;28;21122;-60
2023/09/01 03:02:27;;;;;;;5.47;5.10;;;;;;;12.33;100.00;96882.41;4990762;28;20291;-58
2023/09/01 03:04:56;;;;;;;6.43;6.00;;;;;;;12.31;100.00;96881.78;5016485;28;21099;-58
2023/09/01 03:07:24;;;;;;;6.23;5.63;;;;;;;12.35;100.00;96880.38;4942777;28;20362;-57
2023/09/01 03:09:52;;;;;;;6.27;5.77;;;;;;;12.30;100.00;96873.00;5016128;28;20301;-59
2023/09/01 03:12:19;;;;;;;6.60;6.00;;;;;;;12.34;100.00;96870.75;5011821;28;20795;-58
2023/09/01 03:14:47;;;;;;;7.03;6.43;;;;;;;12.24;100.00;96875.63;5016440;28;20208;-60
2023/09/01 03:17:15;;;;;;;6.23;5.80;;;;;;;12.33;100.00;96877.09;5009860;28;20204;-59
2023/09/01 03:19:42;;;;;;;6.40;5.80;;;;;;;12.41;100.00;96876.06;5014030;28;20251;-60
2023/09/01 03:22:11;;;;;;;6.77;6.27;;;;;;;12.48;100.00;96871.56;5011079;28;20225;-59
2023/09/01 03:24:39;;;;;;;7.10;6.40;;;;;;;12.38;100.00;96879.13;5013097;28;20196;-55
2023/09/01 03:27:07;;;;;;;6.70;6.10;;;;;;;12.49;100.00;96875.06;4960437;28;20502;-58
2023/09/01 03:29:34;;;;;;;6.10;5.60;;;;;;;12.47;100.00;96883.22;5017427;28;20312;-58
2023/09/01 03:32:02;;;;;;;7.40;6.70;;;;;;;12.43;100.00;96880.16;4912458;28;20933;-57
2023/09/01 03:34:31;;;;;;;6.03;5.67;;;;;;;12.43;100.00;96879.34;5010775;28;20693;-55
2023/09/01 03:36:58;;;;;;;6.40;5.80;;;;;;;12.56;100.00;96873.22;5011895;28;20227;-59
2023/09/01 03:39:27;;;;;;;5.87;5.47;;;;;;;12.58;100.00;96868.50;5014132;28;20316;-58
2023/09/01 03:41:55;;;;;;;7.13;6.43;;;;;;;12.54;100.00;96875.25;4943608;28;20208;-58
2023/09/01 03:44:23;;;;;;;6.87;6.23;;;;;;;12.48;100.00;96868.09;5017767;28;20204;-57
2023/09/01 03:46:50;;;;;;;6.27;5.87;;;;;;;12.58;100.00;96881.78;5012892;28;20220;-59
2023/09/01 03:49:18;;;;;;;6.67;6.10;;;;;;;12.62;100.00;96877.72;5017020;28;20259;-58
2023/09/01 03:51:45;;;;;;;7.03;6.53;;;;;;;12.58;100.00;96871.16;5013048;28;20276;-59
2023/09/01 03:54:13;;;;;;;7.07;6.57;;;;;;;12.57;100.00;96872.19;5018000;28;20251;-59
2023/09/01 03:56:42;;;;;;;7.03;6.53;;;;;;;12.59;100.00;96878.13;5012068;28;20227;-57
2023/09/01 03:59:10;;;;;;;7.37;6.77;;;;;;;12.61;100.00;96875.28;5016264;28;20220;-58
2023/09/01 04:01:37;;;;;;;6.77;6.37;;;;;;;12.56;100.00;96871.38;4961329;28;21090;-58
2023/09/01 04:04:06;;;;;;;6.83;6.33;;;;;;;12.65;100.00;96868.53;5013511;28;20906;-56
2023/09/01 04:06:34;;;;;;;7.17;6.67;;;;;;;12.59;100.00;96865.66;4901620;28;21083;-58
2023/09/01 04:09:05;;;;;;;6.70;6.20;;;;;;;12.56;100.00;96866.06;5014460;28;20864;-56
2023/09/01 04:11:32;;;;;;;6.67;6.03;;;;;;;12.57;100.00;96866.88;5009328;28;20801;-60
2023/09/01 04:14:02;;;;;;;7.60;7.03;;;;;;;12.53;100.00;96860.34;5018210;28;20227;-55
2023/09/01 04:16:30;;;;;;;9.20;6.83;;;;;;;12.57;100.00;96861.56;5012570;28;20223;-59
2023/09/01 04:18:57;;;;;;;6.93;6.43;;;;;;;12.55;100.00;96856.47;5018831;28;20248;-58
2023/09/01 04:21:25;;;;;;;7.47;6.87;;;;;;;12.57;100.00;96854.41;4963474;28;20412;-59
2023/09/01 04:23:53;;;;;;;6.87;6.37;;;;;;;12.59;100.00;96848.88;4937996;28;20859;-60
2023/09/01 04:26:21;;;;;;;6.47;5.93;;;;;;;12.67;100.00;96845.22;5012410;28;21440;-60
2023/09/01 04:28:49;;;;;;;6.30;5.90;;;;;;;12.64;100.00;96856.25;5011197;28;20263;-60
2023/09/01 04:31:26;;;;;;;5.60;5.20;;;;;;;12.63;100.00;96854.63;5014719;28;20246;-60
2023/09/01 04:33:54;;;;;;;6.33;5.93;;;;;;;12.62;100.00;96853.00;4961425;28;20260;-59
2023/09/01 04:36:22;;;;;;;6.03;5.63;;;;;;;12.58;100.00;96836.63;5012377;28;20201;-59
2023/09/01 04:39:03;;;;;;;6.77;6.27;;;;;;;12.60;100.00;96842.53;4895827;28;22094;-58
2023/09/01 04:41:31;;;;;;;6.30;5.80;;;;;;;12.56;100.00;96851.94;5017073;28;20242;-59
2023/09/01 04:43:59;;;;;;;6.17;5.67;;;;;;;12.56;100.00;96844.81;5012001;28;20433;-56
2023/09/01 04:46:29;;;;;;;6.40;5.80;;;;;;;12.66;100.00;96846.22;5014139;28;20216;-55
2023/09/01 04:48:57;;;;;;;5.90;5.50;;;;;;;12.60;100.00;96842.53;5011343;28;20557;-58
2023/09/01 04:51:25;;;;;;;6.80;6.30;;;;;;;12.56;100.00;96858.09;5015869;28;20215;-59
2023/09/01 04:53:52;;;;;;;6.07;5.57;;;;;;;12.63;100.00;96860.75;5012779;28;20224;-59
2023/09/01 04:56:20;;;;;;;7.17;6.67;;;;;;;12.59;100.00;96843.56;5014140;28;20205;-56
2023/09/01 04:58:48;;;;;;;6.77;6.27;;;;;;;12.65;100.00;96852.56;5008807;28;20224;-56
2023/09/01 05:01:16;;;;;;;6.10;5.70;;;;;;;12.69;100.00;96849.31;5011720;28;20304;-59
2023/09/01 05:03:45;;;;;;;6.60;6.03;;;;;;;12.73;100.00;96847.88;4951610;28;20889;-57
2023/09/01 05:06:13;;;;;;;6.43;5.80;;;;;;;12.72;100.00;96853.38;4955650;28;20973;-57
2023/09/01 05:08:41;;;;;;;5.97;5.47;;;;;;;12.61;100.00;96862.78;5015173;28;20224;-60
2023/09/01 05:11:09;;;;;;;6.50;6.03;;;;;;;12.54;100.00;96835.41;4918102;28;20679;-58
2023/09/01 05:13:37;;;;;;;6.17;5.77;;;;;;;12.68;100.00;96847.66;5016051;28;20216;-59
2023/09/01 05:16:07;;;;;;;6.50;6.00;;;;;;;12.81;100.00;96851.34;4956026;28;20805;-58
2023/09/01 05:18:34;;;;;;;7.13;6.53;;;;;;;12.78;100.00;96862.38;5015977;28;20330;-59
2023/09/01 05:21:04;;;;;;;6.00;5.50;;;;;;;12.78;100.00;96852.56;5018529;28;20899;-60
2023/09/01 05:23:32;;;;;;;6.07;5.67;;;;;;;12.74;100.00;96856.66;5019465;28;20360;-60
2023/09/01 05:26:00;;;;;;;6.77;6.27;;;;;;;12.82;100.00;96853.78;5013423;28;20204;-62
2023/09/01 05:28:28;;;;;;;5.33;5.03;;;;;;;12.63;100.00;96838.69;5012264;28;20316;-59
2023/09/01 05:30:56;;;;;;;6.83;6.23;;;;;;;12.76;100.00;96862.56;5014871;28;20227;-57
2023/09/01 05:33:24;;;;;;;6.57;6.13;;;;;;;12.79;100.00;96864.81;4955196;28;20519;-60
2023/09/01 05:35:52;;;;;;;6.80;6.20;;;;;;;12.89;100.00;96867.06;5014824;28;20203;-61
2023/09/01 05:38:22;;;;;;;6.97;6.27;;;;;;;12.76;100.00;96856.47;4977944;28;21070;-59
2023/09/01 05:40:55;;;;;;;6.30;5.90;;;;;;;12.83;100.00;96854.59;4942402;28;20208;-58
2023/09/01 05:43:23;;;;;;;6.70;6.10;;;;;;;12.83;100.00;96849.28;5014971;28;20204;-56
2023/09/01 05:45:51;;;;;;;6.57;6.13;;;;;;;12.80;100.00;96858.47;4896627;28;20725;-57
2023/09/01 05:48:18;;;;;;;5.97;5.57;;;;;;;12.88;100.00;96862.78;5016796;28;20792;-56
2023/09/01 05:50:46;;;;;;;6.20;5.63;;;;;;;12.82;100.00;96868.91;5014916;28;20297;-57
2023/09/01 05:53:14;;;;;;;5.50;5.20;;;;;;;12.87;100.00;96875.25;5017937;28;20267;-57
2023/09/01 05:55:43;;;;;;;6.03;5.53;;;;;;;12.93;100.00;96870.94;5011575;28;20363;-59
2023/09/01 05:58:10;;;;;;;5.63;5.13;;;;;;;12.95;100.00;96868.91;5016989;28;20646;-56
2023/09/01 06:00:38;;;;;;;5.10;4.80;;;;;;;12.97;100.00;96871.38;5014239;28;20203;-57
2023/09/01 06:03:07;;;;;;;6.07;5.63;;;;;;;13.00;100.00;96868.28;5016825;28;20320;-58
2023/09/01 06:05:34;;;;;;;4.63;4.37;;;;;;;13.03;100.00;96874.00;5013295;28;20236;-56
2023/09/01 06:08:02;;;;;;;5.60;5.10;;;;;;;12.95;100.00;96870.75;5016030;28;20369;-54
2023/09/01 06:10:30;;;;;;;5.40;5.07;;;;;;;12.91;100.00;96872.19;4956216;28;20219;-58
2023/09/01 06:12:59;;;;;;;5.13;4.80;;;;;;;12.89;100.00;96880.38;5014531;28;20288;-57
2023/09/01 06:15:27;;;;;;;5.40;5.00;;;;;;;12.93;100.00;96881.59;4941222;28;20809;-59
2023/09/01 06:17:55;;;;;;;4.93;4.63;;;;;;;13.02;100.00;96884.84;5017955;28;20576;-58
2023/09/01 06:20:23;;;;;;;4.87;4.57;;;;;;;13.01;100.00;96880.56;4901583;28;21627;-59
2023/09/01 06:22:53;;;;;;;5.17;4.87;;;;;;;13.16;100.00;96890.97;5017697;28;20488;-57
2023/09/01 06:25:21;;;;;;;5.23;4.90;;;;;;;13.06;100.00;96885.22;5008046;28;20889;-58
2023/09/01 06:27:49;;;;;;;5.43;5.13;;;;;;;13.10;100.00;96889.94;5020347;28;20216;-58
2023/09/01 06:30:19;;;;;;;5.20;4.80;;;;;;;13.16;100.00;96890.97;5015485;28;20199;-58
2023/09/01 06:32:47;;;;;;;4.97;4.60;;;;;;;13.14;100.00;96882.38;5020283;28;20208;-58
2023/09/01 06:35:16;;;;;;;4.80;4.50;;;;;;;13.06;100.00;96874.59;5011019;28;20220;-57
2023/09/01 06:37:44;;;;;;;5.30;4.90;;;;;;;13.15;100.00;96878.69;5020823;28;20215;-59
2023/09/01 06:40:12;;;;;;;5.00;4.70;;;;;;;13.16;100.00;96880.31;4961998;28;20212;-58
2023/09/01 06:42:40;;;;;;;5.23;4.70;;;;;;;13.18;100.00;96883.59;5019155;28;20291;-57
2023/09/01 06:45:08;;;;;;;5.43;5.13;;;;;;;13.16;100.00;96888.31;5018563;28;20200;-57
2023/09/01 06:47:37;;;;;;;5.50;5.10;;;;;;;13.21;100.00;96883.19;5018669;28;20220;-58
2023/09/01 06:50:06;;;;;;;7.10;6.43;;;;;;;13.28;100.00;96896.47;5013613;28;20990;-58
2023/09/01 06:52:34;;;;;;;6.07;5.67;;;;;;;13.17;100.00;96892.59;5017508;28;20297;-59
2023/09/01 06:55:05;;;;;;;6.00;5.50;;;;;;;13.25;100.00;96889.72;4944763;28;21277;-60
2023/09/01 06:57:34;;;;;;;6.63;6.13;;;;;;;13.33;100.00;96899.31;5000472;28;20214;-59
2023/09/01 07:00:03;;;;;;;6.53;5.90;;;;;;;13.38;100.00;96896.84;5013814;28;20193;-60
2023/09/01 07:02:31;;;;;;;6.27;5.87;;;;;;;13.37;100.00;96897.88;5012827;28;20212;-58
2023/09/01 07:05:00;;;;;;;6.20;5.80;;;;;;;13.26;100.00;96879.91;5015030;28;20262;-60
2023/09/01 07:07:28;;;;;;;6.50;6.10;;;;;;;13.50;100.00;96897.06;5014033;28;20418;-59
2023/09/01 07:09:56;;;;;;;7.00;6.50;;;;;;;13.58;100.00;96894.16;5013913;28;20397;-55
2023/09/01 07:12:24;;;;;;;7.30;6.70;;;;;;;13.65;100.00;96899.47;5015247;28;20233;-59
2023/09/01 07:14:52;;;;;;;7.60;6.93;;;;;;;13.68;100.00;96901.69;4988870;28;21429;-59
2023/09/01 07:17:21;;;;;;;7.70;7.20;;;;;;;13.73;100.00;96901.06;4992449;28;20216;-55
2023/09/01 07:19:49;;;;;;;8.00;7.47;;;;;;;13.64;100.00;96907.66;5019538;28;20654;-59
2023/09/01 07:22:18;;;;;;;7.47;6.97;;;;;;;13.73;100.00;96909.03;5015363;28;20231;-58
2023/09/01 07:24:52;;;;;;;7.40;6.90;;;;;;;13.90;100.00;96906.72;4980864;28;20684;-58
2023/09/01 07:27:20;;;;;;;7.73;7.13;;;;;;;13.96;100.00;96911.19;4960351;28;20207;-56
2023/09/01 07:29:48;;;;;;;8.43;7.70;;;;;;;13.88;100.00;96912.28;5018407;28;20243;-59
2023/09/01 07:32:16;;;;;;;7.40;6.80;;;;;;;13.91;100.00;96915.53;5013700;28;20691;-54
2023/09/01 07:34:44;;;;;;;7.63;7.13;;;;;;;14.03;100.00;96917.31;5018357;28;20707;-58
2023/09/01 07:37:12;;;;;;;8.83;8.23;;;;;;;14.16;100.00;96913.75;5015046;28;20883;-58
2023/09/01 07:39:41;;;;;;;7.57;6.87;;;;;;;14.17;100.00;96911.91;5016413;28;20358;-58
2023/09/01 07:42:09;;;;;;;7.57;7.07;;;;;;;14.28;100.00;96915.75;5013288;28;20208;-57
2023/09/01 07:44:36;;;;;;;7.17;6.70;;;;;;;14.38;100.00;96907.28;5018907;28;20290;-59
2023/09/01 07:47:04;;;;;;;6.80;6.37;;;;;;;14.36;100.00;96910.16;5011318;28;20612;-56
2023/09/01 07:49:32;;;;;;;7.67;7.10;;;;;;;14.50;100.00;96905.56;5016001;28;20363;-57
2023/09/01 07:51:59;;;;;;;7.03;6.53;;;;;;;14.59;100.00;96906.94;4967811;28;20306;-54
2023/09/01 07:54:27;;;;;;;6.37;5.90;;;;;;;14.76;100.00;96904.56;5017326;28;20279;-57
2023/09/01 07:56:56;;;;;;;7.10;6.60;;;;;;;14.86;100.00;96903.25;4888201;28;20224;-58
2023/09/01 07:59:24;;;;;;;7.20;6.53;;;;;;;15.00;100.00;96901.28;5014094;28;20255;-57
2023/09/01 08:01:52;;;;;;;6.90;6.30;;;;;;;15.15;100.00;96906.28;4960449;28;20294;-56
2023/09/01 08:04:20;;;;;;;6.43;6.00;;;;;;;15.22;100.00;96901.69;5014004;28;20193;-57
2023/09/01 08:06:48;;;;;;;6.17;5.77;;;;;;;15.25;100.00;96903.13;5013620;28;20681;-56
2023/09/01 08:09:16;;;;;;;5.77;5.37;;;;;;;15.24;100.00;96910.31;5016872;28;20290;-55
2023/09/01 08:11:43;;;;;;;6.57;6.07;;;;;;;15.10;100.00;96906.13;5011548;28;20255;-56
2023/09/01 08:14:12;;;;;;;6.87;6.27;;;;;;;15.09;100.00;96907.19;5012216;28;20227;-57
2023/09/01 08:16:40;;;;;;;5.97;5.57;;;;;;;15.04;100.00;96884.66;5011174;28;20305;-59
2023/09/01 08:19:08;;;;;;;6.07;5.57;;;;;;;15.24;100.00;96904.97;5017967;28;20223;-58
2023/09/01 08:21:35;;;;;;;5.80;5.27;;;;;;;15.34;100.00;96909.81;4962047;28;20234;-57
2023/09/01 08:24:03;;;;;;;6.00;5.50;;;;;;;15.51;100.00;96910.03;5017338;28;20632;-56
2023/09/01 08:26:32;;;;;;;6.27;5.87;;;;;;;15.67;100.00;96911.28;5011868;28;20199;-59
2023/09/01 08:29:00;;;;;;;5.67;5.27;;;;;;;15.66;100.00;96916.84;5016735;28;20228;-59
2023/09/01 08:31:29;;;;;;;6.10;5.70;;;;;;;15.75;100.00;96912.84;4886896;28;20362;-59
2023/09/01 08:33:57;;;;;;;5.97;5.57;;;;;;;15.69;100.00;96917.22;5014842;28;20874;-58
2023/09/01 08:36:26;;;;;;;5.47;5.07;;;;;;;15.65;100.00;96920.56;4957793;28;20312;-58
2023/09/01 08:38:54;;;;;;;6.00;5.47;;;;;;;15.74;100.00;96919.25;5011242;28;20223;-57
2023/09/01 08:41:23;;;;;;;6.00;5.60;;;;;;;15.68;100.00;96931.63;5012198;28;20381;-58
2023/09/01 08:43:51;;;;;;;5.77;5.27;;;;;;;15.70;100.00;96918.03;5015149;28;20385;-54
2023/09/01 08:46:22;;;;;;;5.40;5.10;;;;;;;15.88;100.00;96930.59;5009390;28;20204;-59
2023/09/01 08:48:52;;;;;;;5.60;5.20;;;;;;;16.08;100.00;96935.69;5014885;28;20220;-57
2023/09/01 08:51:21;;;;;;;5.27;4.87;;;;;;;16.27;100.00;96932.97;5014654;28;20307;-58
2023/09/01 08:53:48;;;;;;;5.30;5.00;;;;;;;16.39;100.00;96935.69;5013178;28;20710;-55
2023/09/01 08:56:16;;;;;;;5.90;5.40;;;;;;;16.61;100.00;96917.28;4963992;28;20311;-59
2023/09/01 08:58:46;;;;;;;5.27;4.93;;;;;;;17.00;100.00;96931.09;5017998;28;20208;-56
2023/09/01 09:01:14;;;;;;;6.43;5.73;;;;;;;17.00;100.00;96927.59;5014222;28;20736;-53
2023/09/01 09:03:42;;;;;;;5.40;5.00;;;;;;;17.00;100.00;96930.25;5016847;28;20213;-57
2023/09/01 09:06:14;;;;;;;5.53;5.20;;;;;;;16.99;100.00;96934.00;4888137;28;20204;-55
2023/09/01 09:08:42;;;;;;;5.23;4.83;;;;;;;17.52;100.00;96928.75;4951706;28;20224;-59
2023/09/01 09:11:12;;;;;;;5.03;4.57;;;;;;;17.60;100.00;96921.16;5011200;28;20255;-57
2023/09/01 09:13:40;;;;;;;4.53;4.23;;;;;;;18.03;100.00;96919.09;5011609;28;20304;-57
2023/09/01 09:16:11;;;;;;;4.53;4.23;;;;;;;18.17;100.00;96919.63;5016600;28;20447;-59
2023/09/01 09:18:41;;;;;;;4.87;4.57;;;;;;;18.35;100.00;96925.84;4957864;28;20619;-58
2023/09/01 09:21:24;;;;;;;4.73;4.43;;;;;;;18.32;100.00;96921.78;5019308;28;20205;-59
2023/09/01 09:23:53;;;;;;;4.70;4.40;;;;;;;18.53;100.00;96924.81;5016727;28;20787;-58
2023/09/01 09:26:33;;;;;;;4.63;4.33;;;;;;;18.61;100.00;96902.16;5013693;28;20201;-61
2023/09/01 09:29:06;;;;;;;4.30;4.00;;;;;;;19.15;100.00;96920.50;4973649;28;20244;-56
2023/09/01 09:31:37;;;;;;;3.70;3.40;;;;;;;19.12;100.00;96923.66;5018707;28;20200;-60
2023/09/01 09:34:12;;;;;;;3.93;3.50;;;;;;;19.14;100.00;96926.91;5014028;28;20205;-58
2023/09/01 09:36:42;;;;;;;4.00;3.70;;;;;;;18.64;100.00;96920.47;4974652;28;20310;-57
2023/09/01 09:39:23;;;;;;;3.50;3.20;;;;;;;18.66;100.00;96924.53;4952956;28;20229;-59
2023/09/01 09:41:52;;;;;;;3.60;3.30;;;;;;;19.04;100.00;96918.72;5017916;28;20285;-59
2023/09/01 09:44:24;;;;;;;3.93;3.63;;;;;;;18.89;100.00;96927.31;5018614;28;20209;-58
2023/09/01 09:46:54;;;;;;;3.70;3.50;;;;;;;18.65;100.00;96922.09;4975550;28;20506;-61
2023/09/01 09:49:23;;;;;;;3.73;3.47;;;;;;;18.68;100.00;96918.91;5001144;28;20322;-56
2023/09/01 09:51:53;;;;;;;4.10;3.87;;;;;;;18.31;100.00;96917.50;5017447;28;20283;-62
2023/09/01 09:54:22;;;;;;;4.97;3.97;;;;;;;17.72;100.00;96923.03;5017600;28;20247;-59
2023/09/01 09:56:51;;;;;;;4.37;3.97;;;;;;;17.69;100.00;96918.13;4991547;28;20747;-58
2023/09/01 09:59:24;;;;;;;4.20;3.80;;;;;;;17.70;100.00;96917.88;4997867;28;20315;-59
2023/09/01 10:01:53;;;;;;;4.10;3.90;;;;;;;17.58;100.00;96919.78;5016647;28;20321;-59
2023/09/01 10:04:21;;;;;;;3.90;3.60;;;;;;;17.73;100.00;96927.31;5014855;28;20304;-58
2023/09/01 10:06:52;;;;;;;4.67;4.27;;;;;;;17.70;100.00;96925.13;4949734;28;21650;-58
2023/09/01 10:09:20;;;;;;;4.50;4.10;;;;;;;17.72;100.00;96925.69;4970131;28;20220;-59
2023/09/01 10:11:48;;;;;;;4.40;4.10;;;;;;;17.69;100.00;96929.66;5017953;28;20208;-59
2023/09/01 10:14:17;;;;;;;4.13;3.93;;;;;;;17.94;100.00;96924.00;5015792;28;20196;-56
2023/09/01 10:16:45;;;;;;;4.57;4.27;;;;;;;18.11;100.00;96922.47;4988797;28;20887;-58
2023/09/01 10:19:13;;;;;;;4.07;3.67;;;;;;;18.17;100.00;96930.38;4992206;28;20229;-58
2023/09/01 10:21:42;;;;;;;4.40;4.20;;;;;;;17.91;100.00;96913.75;5016445;28;20299;-59
2023/09/01 10:24:16;;;;;;;3.63;3.40;;;;;;;17.94;100.00;96923.19;5017932;28;20196;-56
2023/09/01 10:26:44;;;;;;;5.40;4.17;;;;;;;17.97;100.00;96922.72;5014671;28;20228;-58
2023/09/01 10:29:13;;;;;;;4.43;4.13;;;;;;;18.11;100.00;96925.13;5016795;28;20264;-57
2023/09/01 10:31:45;;;;;;;5.07;4.67;;;;;;;17.95;100.00;96922.13;4998213;28;20254;-62
2023/09/01 10:34:14;;;;;;;4.93;4.43;;;;;;;17.99;100.00;96925.97;4993417;28;20213;-56
2023/09/01 10:36:50;;;;;;;5.00;4.60;;;;;;;18.06;100.00;96925.88;4968951;28;21330;-59
2023/09/01 10:39:31;;;;;;;4.80;4.50;;;;;;;18.03;100.00;96911.06;4972155;28;20852;-56
2023/09/01 10:41:59;;;;;;;5.13;4.83;;;;;;;17.82;100.00;96917.84;5012675;28;20200;-60
2023/09/01 10:45:00;;;;;;;4.50;4.20;;;;;;;17.61;100.00;96924.66;5013234;28;20200;-59
2023/09/01 10:47:46;;;;;;;5.37;4.97;;;;;;;17.42;100.00;96932.03;5009691;28;20262;-60
2023/09/01 10:50:16;;;;;;;4.43;4.23;;;;;;;17.54;100.00;96927.47;5012298;28;20207;-55
2023/09/01 10:52:46;;;;;;;5.30;4.90;;;;;;;17.65;100.00;96926.66;4957765;28;20231;-58
2023/09/01 10:55:15;;;;;;;5.43;4.93;;;;;;;17.79;100.00;96913.78;4942938;28;20221;-58
2023/09/01 10:57:45;;;;;;;4.93;4.53;;;;;;;17.81;100.00;96926.94;5015802;28;21091;-58
2023/09/01 11:00:27;;;;;;;5.63;5.10;;;;;;;17.76;100.00;96916.94;5011163;28;20258;-57
2023/09/01 11:02:55;;;;;;;5.30;4.93;;;;;;;17.89;100.00;96923.91;5016082;28;20282;-57
2023/09/01 11:05:38;;;;;;;4.50;4.20;;;;;;;18.26;100.00;96925.44;4964849;28;20238;-59
2023/09/01 11:08:10;;;;;;;6.00;4.27;;;;;;;18.58;100.00;96924.94;5016667;28;20222;-58
2023/09/01 11:10:39;;;;;;;4.27;3.97;;;;;;;18.60;100.00;96927.38;4888419;28;20234;-52
2023/09/01 11:13:16;;;;;;;4.60;4.27;;;;;;;18.88;100.00;96925.69;5014506;28;20777;-53
2023/09/01 11:15:45;;;;;;;4.00;3.70;;;;;;;18.96;100.00;96922.59;4956233;28;20290;-57
2023/09/01 11:18:17;;;;;;;3.70;3.40;;;;;;;19.15;100.00;96903.59;5013532;28;20784;-55
2023/09/01 11:20:47;;;;;;;3.90;3.57;;;;;;;19.32;100.00;96912.41;5009214;28;20800;-59
2023/09/01 11:23:16;;;;;;;3.93;3.43;;;;;;;19.28;100.00;96913.16;5015975;28;20208;-55
2023/09/01 11:25:45;;;;;;;3.60;3.40;;;;;;;19.32;100.00;96930.38;4950626;28;20306;-54
2023/09/01 11:28:14;;;;;;;3.37;3.07;;;;;;;19.38;100.00;96922.16;5017409;28;20232;-53
2023/09/01 11:30:53;;;;;;;3.73;3.43;;;;;;;19.48;100.00;96926.03;5013410;28;20875;-54
2023/09/01 11:33:22;;;;;;;2.43;2.33;;;;;;;19.60;100.00;96925.94;4958546;28;20227;-55